createdAt,value
2022-11-07T00:01:49.122Z,5.50
2022-11-07T00:04:17.060Z,5.20
2022-11-07T00:06:44.714Z,5.85
2022-11-07T00:09:12.399Z,5.90
2022-11-07T00:11:39.976Z,5.47
2022-11-07T00:14:07.683Z,5.55
2022-11-07T00:16:35.475Z,5.50
2022-11-07T00:19:03.009Z,6.15
2022-11-07T00:21:30.514Z,6.00
2022-11-07T00:23:58.102Z,5.60
2022-11-07T00:26:25.505Z,5.70
2022-11-07T00:28:53.139Z,5.50
2022-11-07T00:31:20.568Z,5.07
2022-11-07T00:33:48.586Z,4.88
2022-11-07T00:36:27.053Z,4.97
2022-11-07T00:38:55.282Z,5.13
2022-11-07T00:41:23.302Z,5.07
2022-11-07T00:43:50.865Z,4.90
2022-11-07T00:46:19.862Z,4.85
2022-11-07T00:48:47.675Z,5.00
2022-11-07T00:51:20.977Z,5.15
2022-11-07T00:53:48.989Z,5.38
2022-11-07T00:56:19.422Z,4.57
2022-11-07T00:58:47.819Z,5.07
2022-11-07T01:01:18.427Z,5.15
2022-11-07T01:04:05.537Z,5.13
2022-11-07T01:06:35.127Z,4.78
2022-11-07T01:09:03.967Z,4.55
2022-11-07T01:11:31.567Z,4.75
2022-11-07T01:14:03.515Z,4.82
2022-11-07T01:16:31.849Z,4.80
2022-11-07T01:18:59.337Z,5.35
2022-11-07T01:21:26.875Z,4.70
2022-11-07T01:23:54.533Z,4.30
2022-11-07T01:26:22.105Z,4.30
2022-11-07T01:28:49.597Z,4.65
2022-11-07T01:31:18.260Z,4.75
2022-11-07T01:33:46.027Z,4.55
2022-11-07T01:36:16.624Z,5.10
2022-11-07T01:38:50.762Z,4.32
2022-11-07T01:41:21.670Z,4.95
2022-11-07T01:44:02.866Z,4.80
2022-11-07T01:46:39.921Z,4.88
2022-11-07T01:49:14.075Z,4.55
2022-11-07T01:51:46.763Z,4.28
2022-11-07T01:54:17.418Z,4.35
2022-11-07T01:56:45.819Z,4.50
2022-11-07T01:59:18.856Z,4.15
2022-11-07T02:01:49.785Z,4.20
2022-11-07T02:04:19.803Z,4.28
2022-11-07T02:06:56.953Z,4.63
2022-11-07T02:09:24.576Z,4.15
2022-11-07T02:11:52.470Z,4.07
2022-11-07T02:14:20.078Z,4.22
2022-11-07T02:16:47.810Z,4.90
2022-11-07T02:19:43.489Z,4.85
2022-11-07T02:22:23.737Z,4.50
2022-11-07T02:24:55.342Z,4.78
2022-11-07T02:27:25.949Z,4.47
2022-11-07T02:29:59.187Z,4.65
2022-11-07T02:32:26.806Z,4.85
2022-11-07T02:35:02.366Z,4.65
2022-11-07T02:37:47.831Z,4.53
2022-11-07T02:40:15.723Z,4.65
2022-11-07T02:42:46.198Z,4.28
2022-11-07T02:45:15.135Z,4.35
2022-11-07T02:47:42.744Z,4.00
2022-11-07T02:50:12.872Z,4.05
2022-11-07T02:52:40.317Z,4.22
2022-11-07T02:55:11.608Z,3.78
2022-11-07T02:57:39.118Z,4.13
2022-11-07T03:00:08.371Z,3.92
2022-11-07T03:02:35.959Z,3.50
2022-11-07T03:05:03.817Z,4.00
2022-11-07T03:07:31.346Z,3.80
2022-11-07T03:09:58.786Z,3.50
2022-11-07T03:12:26.309Z,3.63
2022-11-07T03:14:53.748Z,3.95
2022-11-07T03:17:21.287Z,4.40
2022-11-07T03:19:48.743Z,5.13
2022-11-07T03:22:16.226Z,5.75
2022-11-07T03:24:43.757Z,6.10
2022-11-07T03:27:11.200Z,5.90
2022-11-07T03:29:38.651Z,6.00
2022-11-07T03:32:06.184Z,6.40
2022-11-07T03:34:33.824Z,7.38
2022-11-07T03:37:01.214Z,7.50
2022-11-07T03:39:28.734Z,7.55
2022-11-07T03:41:56.204Z,7.05
2022-11-07T03:44:23.755Z,5.80
2022-11-07T03:46:51.212Z,4.72
2022-11-07T03:49:18.654Z,4.60
2022-11-07T03:51:46.144Z,4.10
2022-11-07T03:54:13.730Z,4.70
2022-11-07T03:56:41.299Z,4.72
2022-11-07T03:59:08.888Z,5.03
2022-11-07T04:01:36.570Z,4.40
2022-11-07T04:04:04.392Z,4.32
2022-11-07T04:06:31.800Z,4.93
2022-11-07T04:08:59.226Z,4.32
2022-11-07T04:11:45.310Z,4.35
2022-11-07T04:14:31.433Z,3.78
2022-11-07T04:17:17.261Z,4.55
2022-11-07T04:19:45.203Z,4.95
2022-11-07T04:22:12.779Z,4.68
2022-11-07T04:24:45.722Z,4.45
2022-11-07T04:27:33.282Z,5.05
2022-11-07T04:30:19.536Z,4.65
2022-11-07T04:32:55.775Z,4.75
2022-11-07T04:35:26.242Z,4.70
2022-11-07T04:37:54.429Z,4.38
2022-11-07T04:40:22.656Z,4.80
2022-11-07T04:42:51.110Z,4.80
2022-11-07T04:45:18.917Z,4.93
2022-11-07T04:47:46.911Z,4.75
2022-11-07T04:50:17.261Z,5.25
2022-11-07T04:52:46.417Z,5.07
2022-11-07T04:55:25.790Z,4.80
2022-11-07T04:57:53.870Z,5.75
2022-11-07T05:00:21.841Z,5.10
2022-11-07T05:02:50.178Z,4.97
2022-11-07T05:05:18.641Z,4.90
2022-11-07T05:07:46.313Z,5.18
2022-11-07T05:10:28.667Z,4.72
2022-11-07T05:12:56.803Z,5.13
2022-11-07T05:15:24.473Z,5.22
2022-11-07T05:17:52.081Z,4.88
2022-11-07T05:20:39.921Z,5.20
2022-11-07T05:23:15.947Z,5.15
2022-11-07T05:25:49.739Z,5.03
2022-11-07T05:28:31.180Z,4.65
2022-11-07T05:31:04.845Z,4.93
2022-11-07T05:33:32.688Z,4.80
2022-11-07T05:36:12.898Z,4.85
2022-11-07T05:38:45.121Z,5.05
2022-11-07T05:41:14.220Z,4.90
2022-11-07T05:43:41.929Z,4.60
2022-11-07T05:46:10.195Z,5.35
2022-11-07T05:48:38.213Z,5.20
2022-11-07T05:51:07.595Z,5.47
2022-11-07T05:53:35.745Z,4.95
2022-11-07T05:56:03.532Z,5.00
2022-11-07T05:58:31.123Z,4.53
2022-11-07T06:01:06.466Z,5.05
2022-11-07T06:03:34.482Z,4.47
2022-11-07T06:06:01.909Z,4.50
2022-11-07T06:08:29.441Z,4.53
2022-11-07T06:10:56.990Z,5.00
2022-11-07T06:13:24.642Z,4.40
2022-11-07T06:15:52.251Z,4.57
2022-11-07T06:18:21.267Z,4.88
2022-11-07T06:20:48.891Z,4.13
2022-11-07T06:23:16.776Z,4.57
2022-11-07T06:25:44.558Z,4.47
2022-11-07T06:28:13.499Z,4.20
2022-11-07T06:30:41.339Z,4.40
2022-11-07T06:33:12.577Z,5.22
2022-11-07T06:35:40.237Z,4.40
2022-11-07T06:38:12.397Z,4.95
2022-11-07T06:40:41.469Z,5.30
2022-11-07T06:43:27.016Z,4.25
2022-11-07T06:45:54.457Z,4.60
2022-11-07T06:48:21.938Z,4.75
2022-11-07T06:51:00.222Z,5.32
2022-11-07T06:53:28.407Z,4.93
2022-11-07T06:55:56.698Z,5.32
2022-11-07T06:58:24.163Z,5.43
2022-11-07T07:00:51.902Z,5.20
2022-11-07T07:03:19.852Z,5.55
2022-11-07T07:05:47.831Z,5.32
2022-11-07T07:08:15.590Z,4.88
2022-11-07T07:10:46.602Z,5.15
2022-11-07T07:13:15.173Z,5.00
2022-11-07T07:15:50.792Z,4.68
2022-11-07T07:18:19.611Z,4.82
2022-11-07T07:20:48.856Z,4.63
2022-11-07T07:23:18.562Z,5.10
2022-11-07T07:25:47.196Z,4.30
2022-11-07T07:28:14.628Z,4.55
2022-11-07T07:30:44.854Z,4.68
2022-11-07T07:33:16.539Z,3.85
2022-11-07T07:35:44.292Z,4.68
2022-11-07T07:38:12.524Z,4.45
2022-11-07T07:40:39.979Z,4.45
2022-11-07T07:43:07.445Z,4.43
2022-11-07T07:45:34.954Z,4.90
2022-11-07T07:48:02.809Z,5.03
2022-11-07T07:50:30.315Z,4.82
2022-11-07T07:52:58.735Z,5.10
2022-11-07T07:55:26.482Z,4.65
2022-11-07T07:57:53.944Z,4.65
2022-11-07T08:00:21.478Z,5.15
2022-11-07T08:02:48.931Z,5.00
2022-11-07T08:05:16.934Z,4.68
2022-11-07T08:07:51.070Z,4.80
2022-11-07T08:10:40.790Z,4.72
2022-11-07T08:13:07.278Z,4.55
2022-11-07T08:15:35.118Z,5.18
2022-11-07T08:18:03.814Z,4.97
2022-11-07T08:20:31.506Z,4.97
2022-11-07T08:23:14.832Z,4.88
2022-11-07T08:25:51.155Z,5.38
2022-11-07T08:28:19.585Z,6.68
2022-11-07T08:30:54.210Z,5.75
2022-11-07T08:33:21.677Z,5.65
2022-11-07T08:35:49.200Z,5.85
2022-11-07T08:38:16.712Z,6.15
2022-11-07T08:40:44.185Z,5.72
2022-11-07T08:43:11.731Z,5.80
2022-11-07T08:45:39.235Z,6.03
2022-11-07T08:48:07.034Z,5.72
2022-11-07T08:50:34.694Z,5.80
2022-11-07T08:53:03.202Z,6.47
2022-11-07T08:55:31.176Z,6.47
2022-11-07T08:58:00.654Z,6.15
2022-11-07T09:00:28.545Z,6.22
2022-11-07T09:05:43.453Z,6.28
2022-11-07T09:08:10.965Z,5.85
2022-11-07T09:10:38.543Z,6.20
2022-11-07T09:13:06.365Z,5.88
2022-11-07T09:15:34.815Z,6.32
2022-11-07T09:18:06.678Z,6.20
2022-11-07T09:20:35.140Z,5.75
2022-11-07T09:23:02.628Z,6.65
2022-11-07T09:25:30.221Z,6.45
2022-11-07T09:28:01.689Z,6.50
2022-11-07T09:30:29.164Z,7.07
2022-11-07T09:32:57.228Z,6.30
2022-11-07T09:35:24.920Z,6.75
2022-11-07T09:37:52.879Z,6.28
2022-11-07T09:40:20.318Z,6.93
2022-11-07T09:43:06.178Z,7.25
2022-11-07T09:45:42.320Z,7.18
2022-11-07T09:48:18.653Z,7.03
2022-11-07T09:50:49.445Z,6.55
2022-11-07T09:53:24.118Z,6.90
2022-11-07T09:55:57.811Z,7.07
2022-11-07T09:58:41.121Z,7.03
2022-11-07T10:01:17.298Z,7.82
2022-11-07T10:04:10.331Z,7.10
2022-11-07T10:06:43.309Z,7.22
2022-11-07T10:09:35.470Z,6.70
2022-11-07T10:12:24.103Z,6.67
2022-11-07T10:15:11.077Z,6.55
2022-11-07T10:18:02.937Z,6.22
2022-11-07T10:20:36.626Z,6.85
2022-11-07T10:23:09.092Z,7.05
2022-11-07T10:26:05.924Z,6.63
2022-11-07T10:28:39.217Z,7.18
2022-11-07T10:31:11.144Z,6.70
2022-11-07T10:33:47.501Z,7.50
2022-11-07T10:36:27.181Z,7.70
2022-11-07T10:38:54.785Z,7.40
2022-11-07T10:41:27.081Z,7.78
2022-11-07T10:44:01.123Z,7.32
2022-11-07T10:46:43.115Z,7.93
2022-11-07T10:49:25.435Z,7.47
2022-11-07T10:51:54.143Z,6.63
2022-11-07T10:54:30.474Z,6.97
2022-11-07T10:57:10.356Z,6.88
2022-11-07T10:59:41.282Z,6.70
2022-11-07T11:02:42.285Z,6.95
2022-11-07T11:05:28.518Z,6.35
2022-11-07T11:07:58.221Z,6.40
2022-11-07T11:10:31.246Z,6.45
2022-11-07T11:12:58.765Z,6.55
2022-11-07T11:15:32.761Z,6.72
2022-11-07T11:18:06.469Z,6.28
2022-11-07T11:20:40.582Z,5.95
2022-11-07T11:23:25.015Z,5.80
2022-11-07T11:26:02.948Z,6.13
2022-11-07T11:28:44.588Z,6.60
2022-11-07T11:31:37.302Z,5.97
2022-11-07T11:34:28.572Z,6.78
2022-11-07T11:37:17.413Z,6.00
2022-11-07T11:39:51.910Z,5.88
2022-11-07T11:42:51.542Z,5.97
2022-11-07T11:45:41.616Z,5.95
2022-11-07T11:48:20.825Z,5.90
2022-11-07T11:51:29.828Z,5.82
2022-11-07T11:53:57.484Z,5.90
2022-11-07T11:56:30.863Z,5.95
2022-11-07T11:59:20.401Z,6.15
2022-11-07T12:02:02.685Z,6.03
2022-11-07T12:04:51.792Z,5.93
2022-11-07T12:07:35.196Z,5.80
2022-11-07T12:10:19.549Z,6.72
2022-11-07T12:13:14.849Z,5.82
2022-11-07T12:16:24.085Z,5.47
2022-11-07T12:19:28.374Z,5.55
2022-11-07T12:22:20.941Z,5.60
2022-11-07T12:25:04.400Z,5.40
2022-11-07T12:27:49.862Z,4.78
2022-11-07T12:30:25.349Z,5.25
2022-11-07T12:33:17.930Z,5.10
2022-11-07T12:36:02.957Z,5.75
2022-11-07T12:38:33.239Z,5.57
2022-11-07T12:41:42.070Z,5.80
2022-11-07T12:44:15.540Z,5.75
2022-11-07T12:46:51.926Z,5.05
2022-11-07T12:49:37.569Z,4.72
2022-11-07T12:52:29.382Z,5.07
2022-11-07T12:55:22.162Z,4.50
2022-11-07T12:57:52.797Z,4.40
2022-11-07T13:00:29.253Z,4.47
2022-11-07T13:03:44.255Z,4.80
2022-11-07T13:06:35.998Z,3.92
2022-11-07T13:09:24.694Z,3.72
2022-11-07T13:11:56.080Z,4.68
2022-11-07T13:14:34.597Z,4.30
2022-11-07T13:17:02.110Z,4.65
2022-11-07T13:19:41.899Z,4.20
2022-11-07T13:22:22.894Z,4.30
2022-11-07T13:24:53.708Z,4.70
2022-11-07T13:27:32.220Z,3.75
2022-11-07T13:30:20.409Z,4.30
2022-11-07T13:32:50.424Z,4.20
2022-11-07T13:35:24.121Z,4.05
2022-11-07T13:38:08.361Z,4.05
2022-11-07T13:41:02.557Z,4.25
2022-11-07T13:43:45.531Z,3.97
2022-11-07T13:46:25.161Z,4.05
2022-11-07T13:48:57.294Z,4.47
2022-11-07T13:51:50.729Z,4.22
2022-11-07T13:54:27.944Z,3.88
2022-11-07T13:57:20.861Z,4.45
2022-11-07T13:59:52.834Z,4.30
2022-11-07T14:02:32.561Z,4.05
2022-11-07T14:05:17.243Z,3.90
2022-11-07T14:08:09.658Z,3.90
2022-11-07T14:10:47.454Z,4.35
2022-11-07T14:13:29.323Z,4.65
2022-11-07T14:16:22.190Z,5.43
2022-11-07T14:21:31.182Z,4.45
2022-11-07T14:23:59.368Z,4.65
2022-11-07T14:26:33.069Z,4.13
2022-11-07T14:29:04.068Z,4.10
2022-11-07T14:31:38.067Z,4.05
2022-11-07T14:34:18.681Z,3.95
2022-11-07T14:37:02.495Z,4.13
2022-11-07T14:39:33.052Z,3.78
2022-11-07T14:42:04.274Z,3.45
2022-11-07T14:44:54.870Z,3.72
2022-11-07T14:47:30.595Z,4.03
2022-11-07T14:49:59.622Z,3.95
2022-11-07T14:52:51.549Z,3.78
2022-11-07T14:55:43.383Z,4.13
2022-11-07T14:58:12.268Z,3.95
2022-11-07T15:00:39.823Z,4.35
2022-11-07T15:03:07.276Z,4.68
2022-11-07T15:05:37.844Z,5.72
2022-11-07T15:08:05.695Z,4.10
2022-11-07T15:10:41.629Z,4.40
2022-11-07T15:13:26.621Z,6.93
2022-11-07T15:16:06.930Z,5.05
2022-11-07T15:18:41.807Z,4.90
2022-11-07T15:21:30.037Z,4.60
2022-11-07T15:23:59.382Z,5.13
2022-11-07T15:26:36.183Z,3.97
2022-11-07T15:29:22.002Z,3.97
2022-11-07T15:31:49.874Z,4.47
2022-11-07T15:34:33.646Z,4.68
2022-11-07T15:37:11.279Z,4.43
2022-11-07T15:39:39.017Z,4.35
2022-11-07T15:42:06.561Z,4.25
2022-11-07T15:44:34.107Z,4.78
2022-11-07T15:47:03.576Z,5.43
2022-11-07T15:49:32.347Z,5.20
2022-11-07T15:52:00.457Z,4.95
2022-11-07T15:54:28.722Z,4.90
2022-11-07T15:57:00.253Z,4.93
2022-11-07T15:59:32.214Z,5.68
2022-11-07T16:02:00.327Z,5.63
2022-11-07T16:04:28.060Z,5.03
2022-11-07T16:06:55.519Z,4.32
2022-11-07T16:09:23.232Z,4.85
2022-11-07T16:11:50.711Z,4.50
2022-11-07T16:14:42.789Z,4.70
2022-11-07T16:17:15.070Z,4.70
2022-11-07T16:19:42.579Z,4.18
2022-11-07T16:22:14.974Z,4.68
2022-11-07T16:24:42.884Z,4.22
2022-11-07T16:27:19.330Z,5.05
2022-11-07T16:29:47.699Z,4.63
2022-11-07T16:32:18.521Z,5.05
2022-11-07T16:34:47.029Z,4.65
2022-11-07T16:37:14.464Z,5.53
2022-11-07T16:39:41.939Z,6.25
2022-11-07T16:42:16.441Z,6.20
2022-11-07T16:44:44.421Z,7.15
2022-11-07T16:47:16.722Z,6.72
2022-11-07T16:49:44.274Z,5.95
2022-11-07T16:52:19.793Z,5.38
2022-11-07T16:54:47.499Z,5.80
2022-11-07T16:57:19.066Z,5.43
2022-11-07T16:59:47.115Z,5.10
2022-11-07T17:02:26.046Z,4.85
2022-11-07T17:04:54.889Z,5.07
2022-11-07T17:07:24.064Z,5.10
2022-11-07T17:09:51.752Z,4.97
2022-11-07T17:12:21.905Z,5.38
2022-11-07T17:14:50.396Z,5.80
2022-11-07T17:17:19.268Z,5.18
2022-11-07T17:19:47.161Z,4.88
2022-11-07T17:22:15.666Z,5.50
2022-11-07T17:24:43.303Z,5.25
2022-11-07T17:27:25.737Z,5.28
2022-11-07T17:29:53.920Z,5.68
2022-11-07T17:32:21.561Z,5.68
2022-11-07T17:35:10.513Z,6.00
2022-11-07T17:37:37.006Z,5.20
2022-11-07T17:40:05.485Z,5.45
2022-11-07T17:42:37.786Z,5.43
2022-11-07T17:45:06.901Z,5.82
2022-11-07T17:47:37.414Z,5.32
2022-11-07T17:50:05.400Z,15.30
2022-11-07T17:52:32.964Z,5.55
2022-11-07T17:55:00.512Z,8.57
2022-11-07T17:57:27.971Z,5.80
2022-11-07T17:59:55.542Z,9.77
2022-11-07T18:02:23.099Z,6.63
2022-11-07T18:04:50.814Z,5.80
2022-11-07T18:07:18.973Z,6.10
2022-11-07T18:09:46.801Z,6.60
2022-11-07T18:12:14.331Z,5.45
2022-11-07T18:14:42.069Z,7.38
2022-11-07T18:17:09.960Z,5.43
2022-11-07T18:19:37.709Z,6.13
2022-11-07T18:22:05.536Z,5.18
2022-11-07T18:24:33.067Z,5.38
2022-11-07T18:27:00.539Z,5.05
2022-11-07T18:29:27.996Z,7.57
2022-11-07T18:31:55.476Z,5.93
2022-11-07T18:34:23.000Z,7.50
2022-11-07T18:36:50.510Z,7.22
2022-11-07T18:39:22.194Z,6.00
2022-11-07T18:41:51.106Z,5.70
2022-11-07T18:44:19.475Z,6.10
2022-11-07T18:46:47.630Z,5.32
2022-11-07T18:49:16.357Z,5.82
2022-11-07T18:51:44.239Z,5.78
2022-11-07T18:54:14.020Z,6.80
2022-11-07T18:56:42.675Z,6.10
2022-11-07T18:59:10.934Z,6.57
2022-11-07T19:01:40.393Z,7.47
2022-11-07T19:04:08.640Z,6.95
2022-11-07T19:06:36.710Z,6.63
2022-11-07T19:09:04.395Z,5.72
2022-11-07T19:11:34.162Z,5.60
2022-11-07T19:14:02.841Z,5.80
2022-11-07T19:16:30.731Z,5.65
2022-11-07T19:18:59.424Z,5.93
2022-11-07T19:21:27.369Z,5.95
2022-11-07T19:23:55.065Z,5.65
2022-11-07T19:26:25.013Z,5.68
2022-11-07T19:28:57.642Z,5.40
2022-11-07T19:33:52.520Z,6.30
2022-11-07T19:36:21.611Z,5.97
2022-11-07T19:38:49.642Z,5.55
2022-11-07T19:41:18.815Z,5.68
2022-11-07T19:43:50.223Z,5.88
2022-11-07T19:46:22.918Z,6.47
2022-11-07T19:51:22.462Z,5.70
2022-11-07T19:53:59.419Z,5.50
2022-11-07T19:56:30.072Z,5.60
2022-11-07T19:58:59.286Z,6.78
2022-11-07T20:01:29.594Z,5.38
2022-11-07T20:03:58.443Z,5.68
2022-11-07T20:06:35.708Z,6.28
2022-11-07T20:09:06.487Z,6.32
2022-11-07T20:11:34.089Z,5.18
2022-11-07T20:14:03.750Z,5.97
2022-11-07T20:16:33.205Z,5.10
2022-11-07T20:19:01.424Z,5.22
2022-11-07T20:21:29.664Z,6.22
2022-11-07T20:24:00.000Z,5.60
2022-11-07T20:26:29.757Z,6.25
2022-11-07T20:28:57.647Z,5.88
2022-11-07T20:31:30.699Z,6.07
2022-11-07T20:34:00.053Z,5.20
2022-11-07T20:36:28.405Z,6.10
2022-11-07T20:38:56.519Z,6.30
2022-11-07T20:41:24.505Z,6.07
2022-11-07T20:43:57.593Z,6.10
2022-11-07T20:46:25.105Z,6.38
2022-11-07T20:48:53.733Z,5.65
2022-11-07T20:51:23.259Z,5.88
2022-11-07T20:53:51.075Z,6.25
2022-11-07T20:56:20.412Z,6.22
2022-11-07T20:58:48.698Z,5.65
2022-11-07T21:01:22.508Z,6.25
2022-11-07T21:03:50.650Z,6.40
2022-11-07T21:06:18.776Z,6.00
2022-11-07T21:08:48.999Z,6.43
2022-11-07T21:11:17.000Z,6.45
2022-11-07T21:13:51.233Z,6.18
2022-11-07T21:16:22.077Z,5.90
2022-11-07T21:18:51.138Z,6.50
2022-11-07T21:21:22.379Z,5.72
2022-11-07T21:23:51.075Z,5.93
2022-11-07T21:26:21.744Z,6.35
2022-11-07T21:28:49.252Z,5.63
2022-11-07T21:31:22.047Z,6.07
2022-11-07T21:33:49.677Z,6.05
2022-11-07T21:36:20.124Z,5.90
2022-11-07T21:38:48.183Z,5.72
2022-11-07T21:41:16.427Z,5.80
2022-11-07T21:43:44.377Z,6.28
2022-11-07T21:46:19.105Z,5.40
2022-11-07T21:48:47.164Z,6.25
2022-11-07T21:51:23.493Z,5.35
2022-11-07T21:53:51.483Z,5.88
2022-11-07T21:56:24.460Z,5.45
2022-11-07T21:58:53.961Z,4.68
2022-11-07T22:01:22.853Z,5.40
2022-11-07T22:04:06.588Z,5.05
2022-11-07T22:06:37.940Z,5.53
2022-11-07T22:09:06.996Z,5.85
2022-11-07T22:11:34.923Z,5.60
2022-11-07T22:14:03.013Z,5.45
2022-11-07T22:16:30.667Z,5.60
2022-11-07T22:19:00.577Z,5.85
2022-11-07T22:21:28.579Z,5.50
2022-11-07T22:23:56.561Z,5.32
2022-11-07T22:26:25.986Z,5.63
2022-11-07T22:28:54.251Z,6.07
2022-11-07T22:31:23.189Z,5.50
2022-11-07T22:33:51.937Z,6.07
2022-11-07T22:36:20.434Z,5.38
2022-11-07T22:38:48.366Z,5.22
2022-11-07T22:41:23.509Z,5.50
2022-11-07T22:43:51.833Z,5.20
2022-11-07T22:46:24.125Z,4.90
2022-11-07T22:48:52.490Z,5.25
2022-11-07T22:51:22.963Z,5.32
2022-11-07T22:54:12.708Z,4.68
2022-11-07T22:56:41.159Z,5.35
2022-11-07T22:59:10.528Z,4.85
2022-11-07T23:01:40.784Z,4.70
2022-11-07T23:04:13.149Z,4.53
2022-11-07T23:06:40.824Z,4.80
2022-11-07T23:09:08.552Z,4.47
2022-11-07T23:11:52.090Z,4.70
2022-11-07T23:14:21.644Z,4.72
2022-11-07T23:16:52.341Z,4.40
2022-11-07T23:19:22.719Z,4.55
2022-11-07T23:21:51.237Z,4.10
2022-11-07T23:24:19.471Z,4.43
2022-11-07T23:26:47.250Z,4.38
2022-11-07T23:29:20.967Z,4.30
2022-11-07T23:31:50.147Z,4.68
2022-11-07T23:34:19.389Z,4.57
2022-11-07T23:36:49.706Z,4.45
2022-11-07T23:39:20.083Z,4.60
2022-11-07T23:41:47.833Z,4.57
2022-11-07T23:44:15.789Z,4.47
2022-11-07T23:47:02.059Z,4.47
2022-11-07T23:49:48.284Z,4.45
2022-11-07T23:52:16.487Z,4.50
2022-11-07T23:55:02.711Z,4.03
2022-11-07T23:57:32.935Z,4.43
